Terminal Aerodrome Forecast
Issued by NWS Wilmington, OH

Current Version | Previous Version | Graphics & Text | Print | Product List | Glossary On
Versions: 1 2 3 4 5 6 7 8 9 10 11 12 13 14 15 16 17 18 19 20 21 22 23
505
FTUS41 KILN 212331
TAFCVG
TAF
KCVG 212331Z 2200/2306 30010G20KT P6SM SCT050
     FM220100 30003KT P6SM SCT250
     FM221400 31005KT P6SM SCT035
     FM222300 VRB03KT P6SM SKC=

USA.gov is the U.S. government's official web portal to all federal, state and local government web resources and services.